sensor_id;sensor_type;location;lat;lon;timestamp;P1;P2;P0
57884;PMS5003;43703;51.060;-0.086;2024-01-30T00:01:18;27;25;
57884;PMS5003;43703;51.060;-0.086;2024-01-30T00:03:43;21;20;
57884;PMS5003;43703;51.060;-0.086;2024-01-30T00:06:08;27;25;
57884;PMS5003;43703;51.060;-0.086;2024-01-30T00:08:34;24;22;
57884;PMS5003;43703;51.060;-0.086;2024-01-30T00:10:59;22;22;
57884;PMS5003;43703;51.060;-0.086;2024-01-30T00:13:27;26;24;
57884;PMS5003;43703;51.060;-0.086;2024-01-30T00:15:51;27;24;
57884;PMS5003;43703;51.060;-0.086;2024-01-30T00:18:16;28;25;
57884;PMS5003;43703;51.060;-0.086;2024-01-30T00:20:41;24;22;
57884;PMS5003;43703;51.060;-0.086;2024-01-30T00:23:07;26;26;
57884;PMS5003;43703;51.060;-0.086;2024-01-30T00:25:32;25;24;
57884;PMS5003;43703;51.060;-0.086;2024-01-30T00:27:58;25;22;
57884;PMS5003;43703;51.060;-0.086;2024-01-30T00:30:23;27;24;
57884;PMS5003;43703;51.060;-0.086;2024-01-30T00:32:48;24;24;
57884;PMS5003;43703;51.060;-0.086;2024-01-30T00:35:14;30;28;
57884;PMS5003;43703;51.060;-0.086;2024-01-30T00:37:40;31;27;
57884;PMS5003;43703;51.060;-0.086;2024-01-30T00:40:06;26;24;
57884;PMS5003;43703;51.060;-0.086;2024-01-30T00:42:31;26;25;
57884;PMS5003;43703;51.060;-0.086;2024-01-30T00:44:57;29;27;
57884;PMS5003;43703;51.060;-0.086;2024-01-30T00:47:22;28;24;
57884;PMS5003;43703;51.060;-0.086;2024-01-30T00:49:48;28;22;
57884;PMS5003;43703;51.060;-0.086;2024-01-30T00:52:13;24;21;
57884;PMS5003;43703;51.060;-0.086;2024-01-30T00:54:39;23;23;
57884;PMS5003;43703;51.060;-0.086;2024-01-30T00:57:04;21;20;
57884;PMS5003;43703;51.060;-0.086;2024-01-30T00:59:30;22;19;
57884;PMS5003;43703;51.060;-0.086;2024-01-30T01:01:55;22;17;
57884;PMS5003;43703;51.060;-0.086;2024-01-30T01:04:21;21;16;
57884;PMS5003;43703;51.060;-0.086;2024-01-30T01:06:47;19;18;
57884;PMS5003;43703;51.060;-0.086;2024-01-30T01:09:12;20;18;
57884;PMS5003;43703;51.060;-0.086;2024-01-30T01:11:38;18;15;
57884;PMS5003;43703;51.060;-0.086;2024-01-30T01:14:03;16;14;
57884;PMS5003;43703;51.060;-0.086;2024-01-30T01:16:29;16;16;
57884;PMS5003;43703;51.060;-0.086;2024-01-30T01:18:54;11;11;
57884;PMS5003;43703;51.060;-0.086;2024-01-30T01:21:20;11;8;
57884;PMS5003;43703;51.060;-0.086;2024-01-30T01:23:45;12;10;
57884;PMS5003;43703;51.060;-0.086;2024-01-30T01:26:11;9;8;
57884;PMS5003;43703;51.060;-0.086;2024-01-30T01:28:39;8;5;
57884;PMS5003;43703;51.060;-0.086;2024-01-30T01:31:07;8;7;
57884;PMS5003;43703;51.060;-0.086;2024-01-30T01:33:28;4;3;
57884;PMS5003;43703;51.060;-0.086;2024-01-30T01:35:54;4;4;
57884;PMS5003;43703;51.060;-0.086;2024-01-30T01:38:19;6;5;
57884;PMS5003;43703;51.060;-0.086;2024-01-30T01:40:50;3;1;
57884;PMS5003;43703;51.060;-0.086;2024-01-30T01:43:11;4;3;
57884;PMS5003;43703;51.060;-0.086;2024-01-30T01:45:37;3;3;
57884;PMS5003;43703;51.060;-0.086;2024-01-30T01:48:03;3;2;
57884;PMS5003;43703;51.060;-0.086;2024-01-30T01:50:28;3;2;
57884;PMS5003;43703;51.060;-0.086;2024-01-30T01:52:54;2;1;
57884;PMS5003;43703;51.060;-0.086;2024-01-30T01:55:21;2;2;
57884;PMS5003;43703;51.060;-0.086;2024-01-30T01:57:46;3;3;
57884;PMS5003;43703;51.060;-0.086;2024-01-30T02:00:17;3;1;
57884;PMS5003;43703;51.060;-0.086;2024-01-30T02:02:37;6;3;
57884;PMS5003;43703;51.060;-0.086;2024-01-30T02:05:03;1;1;
57884;PMS5003;43703;51.060;-0.086;2024-01-30T02:07:29;1;1;
57884;PMS5003;43703;51.060;-0.086;2024-01-30T02:09:55;4;4;
57884;PMS5003;43703;51.060;-0.086;2024-01-30T02:12:21;3;2;
57884;PMS5003;43703;51.060;-0.086;2024-01-30T02:14:47;1;1;
57884;PMS5003;43703;51.060;-0.086;2024-01-30T02:17:12;5;3;
57884;PMS5003;43703;51.060;-0.086;2024-01-30T02:19:38;3;1;
57884;PMS5003;43703;51.060;-0.086;2024-01-30T02:22:09;2;2;
57884;PMS5003;43703;51.060;-0.086;2024-01-30T02:24:30;5;3;
57884;PMS5003;43703;51.060;-0.086;2024-01-30T02:26:56;2;2;
57884;PMS5003;43703;51.060;-0.086;2024-01-30T02:29:26;1;1;
57884;PMS5003;43703;51.060;-0.086;2024-01-30T02:31:47;1;1;
57884;PMS5003;43703;51.060;-0.086;2024-01-30T02:34:13;6;3;
57884;PMS5003;43703;51.060;-0.086;2024-01-30T02:36:44;3;3;
57884;PMS5003;43703;51.060;-0.086;2024-01-30T02:39:05;3;2;
57884;PMS5003;43703;51.060;-0.086;2024-01-30T02:41:30;3;2;
57884;PMS5003;43703;51.060;-0.086;2024-01-30T02:43:56;6;4;
57884;PMS5003;43703;51.060;-0.086;2024-01-30T02:46:22;6;2;
57884;PMS5003;43703;51.060;-0.086;2024-01-30T02:48:48;2;2;
57884;PMS5003;43703;51.060;-0.086;2024-01-30T02:51:14;1;1;
57884;PMS5003;43703;51.060;-0.086;2024-01-30T02:53:40;3;3;
57884;PMS5003;43703;51.060;-0.086;2024-01-30T02:56:06;3;3;
57884;PMS5003;43703;51.060;-0.086;2024-01-30T02:58:36;3;3;
57884;PMS5003;43703;51.060;-0.086;2024-01-30T03:00:57;3;2;
57884;PMS5003;43703;51.060;-0.086;2024-01-30T03:03:23;2;1;
57884;PMS5003;43703;51.060;-0.086;2024-01-30T03:05:49;4;4;
57884;PMS5003;43703;51.060;-0.086;2024-01-30T03:08:14;3;2;
57884;PMS5003;43703;51.060;-0.086;2024-01-30T03:13:06;6;3;
57884;PMS5003;43703;51.060;-0.086;2024-01-30T03:15:32;5;3;
57884;PMS5003;43703;51.060;-0.086;2024-01-30T03:17:58;3;2;
57884;PMS5003;43703;51.060;-0.086;2024-01-30T03:20:24;3;1;
57884;PMS5003;43703;51.060;-0.086;2024-01-30T03:22:49;1;1;
57884;PMS5003;43703;51.060;-0.086;2024-01-30T03:25:15;1;1;
57884;PMS5003;43703;51.060;-0.086;2024-01-30T03:27:41;5;2;
57884;PMS5003;43703;51.060;-0.086;2024-01-30T03:30:07;4;4;
57884;PMS5003;43703;51.060;-0.086;2024-01-30T03:32:33;2;2;
57884;PMS5003;43703;51.060;-0.086;2024-01-30T03:34:58;3;1;
57884;PMS5003;43703;51.060;-0.086;2024-01-30T03:37:24;2;1;
57884;PMS5003;43703;51.060;-0.086;2024-01-30T03:39:50;0;0;
57884;PMS5003;43703;51.060;-0.086;2024-01-30T03:42:16;2;2;
57884;PMS5003;43703;51.060;-0.086;2024-01-30T03:44:41;0;0;
57884;PMS5003;43703;51.060;-0.086;2024-01-30T03:47:07;3;2;
57884;PMS5003;43703;51.060;-0.086;2024-01-30T03:49:33;2;2;
57884;PMS5003;43703;51.060;-0.086;2024-01-30T03:51:59;0;0;
57884;PMS5003;43703;51.060;-0.086;2024-01-30T03:54:24;0;0;
57884;PMS5003;43703;51.060;-0.086;2024-01-30T03:56:50;3;3;
57884;PMS5003;43703;51.060;-0.086;2024-01-30T03:59:16;2;2;
57884;PMS5003;43703;51.060;-0.086;2024-01-30T04:01:42;4;1;
57884;PMS5003;43703;51.060;-0.086;2024-01-30T04:04:07;5;2;
57884;PMS5003;43703;51.060;-0.086;2024-01-30T04:06:33;2;2;
57884;PMS5003;43703;51.060;-0.086;2024-01-30T04:08:59;1;1;
57884;PMS5003;43703;51.060;-0.086;2024-01-30T04:11:25;3;2;
57884;PMS5003;43703;51.060;-0.086;2024-01-30T04:13:51;1;1;
57884;PMS5003;43703;51.060;-0.086;2024-01-30T04:16:20;4;2;
57884;PMS5003;43703;51.060;-0.086;2024-01-30T04:18:42;6;4;
57884;PMS5003;43703;51.060;-0.086;2024-01-30T04:21:08;2;2;
57884;PMS5003;43703;51.060;-0.086;2024-01-30T04:23:34;2;2;
57884;PMS5003;43703;51.060;-0.086;2024-01-30T04:25:59;4;2;
57884;PMS5003;43703;51.060;-0.086;2024-01-30T04:28:25;4;3;
57884;PMS5003;43703;51.060;-0.086;2024-01-30T04:30:51;2;2;
57884;PMS5003;43703;51.060;-0.086;2024-01-30T04:33:17;4;2;
57884;PMS5003;43703;51.060;-0.086;2024-01-30T04:35:43;4;3;
57884;PMS5003;43703;51.060;-0.086;2024-01-30T04:38:09;4;2;
57884;PMS5003;43703;51.060;-0.086;2024-01-30T04:40:34;2;2;
57884;PMS5003;43703;51.060;-0.086;2024-01-30T04:43:01;3;2;
57884;PMS5003;43703;51.060;-0.086;2024-01-30T04:45:26;3;2;
57884;PMS5003;43703;51.060;-0.086;2024-01-30T04:47:51;3;3;
57884;PMS5003;43703;51.060;-0.086;2024-01-30T04:50:17;2;1;
57884;PMS5003;43703;51.060;-0.086;2024-01-30T04:52:43;4;4;
57884;PMS5003;43703;51.060;-0.086;2024-01-30T04:55:09;5;4;
57884;PMS5003;43703;51.060;-0.086;2024-01-30T04:57:35;4;4;
57884;PMS5003;43703;51.060;-0.086;2024-01-30T05:00:01;3;3;
57884;PMS5003;43703;51.060;-0.086;2024-01-30T05:02:27;1;1;
57884;PMS5003;43703;51.060;-0.086;2024-01-30T05:04:52;3;2;
57884;PMS5003;43703;51.060;-0.086;2024-01-30T05:07:18;1;1;
57884;PMS5003;43703;51.060;-0.086;2024-01-30T05:09:44;7;6;
57884;PMS5003;43703;51.060;-0.086;2024-01-30T05:12:09;5;3;
57884;PMS5003;43703;51.060;-0.086;2024-01-30T05:14:35;3;3;
57884;PMS5003;43703;51.060;-0.086;2024-01-30T05:17:01;3;2;
57884;PMS5003;43703;51.060;-0.086;2024-01-30T05:19:27;4;2;
57884;PMS5003;43703;51.060;-0.086;2024-01-30T05:21:53;3;2;
57884;PMS5003;43703;51.060;-0.086;2024-01-30T05:24:18;1;1;
57884;PMS5003;43703;51.060;-0.086;2024-01-30T05:26:44;4;3;
57884;PMS5003;43703;51.060;-0.086;2024-01-30T05:29:10;5;5;
57884;PMS5003;43703;51.060;-0.086;2024-01-30T05:31:36;5;4;
57884;PMS5003;43703;51.060;-0.086;2024-01-30T05:34:01;4;4;
57884;PMS5003;43703;51.060;-0.086;2024-01-30T05:36:27;2;2;
57884;PMS5003;43703;51.060;-0.086;2024-01-30T05:38:53;4;4;
57884;PMS5003;43703;51.060;-0.086;2024-01-30T05:41:19;4;4;
57884;PMS5003;43703;51.060;-0.086;2024-01-30T05:43:45;4;2;
57884;PMS5003;43703;51.060;-0.086;2024-01-30T05:46:11;4;2;
57884;PMS5003;43703;51.060;-0.086;2024-01-30T05:48:37;3;3;
57884;PMS5003;43703;51.060;-0.086;2024-01-30T05:51:03;2;2;
57884;PMS5003;43703;51.060;-0.086;2024-01-30T05:53:33;3;3;
57884;PMS5003;43703;51.060;-0.086;2024-01-30T05:55:54;4;3;
57884;PMS5003;43703;51.060;-0.086;2024-01-30T05:58:20;5;3;
57884;PMS5003;43703;51.060;-0.086;2024-01-30T06:00:47;2;2;
57884;PMS5003;43703;51.060;-0.086;2024-01-30T06:03:12;3;3;
57884;PMS5003;43703;51.060;-0.086;2024-01-30T06:05:37;3;3;
57884;PMS5003;43703;51.060;-0.086;2024-01-30T06:08:04;4;3;
57884;PMS5003;43703;51.060;-0.086;2024-01-30T06:12:55;1;1;
57884;PMS5003;43703;51.060;-0.086;2024-01-30T06:15:21;0;0;
57884;PMS5003;43703;51.060;-0.086;2024-01-30T06:17:47;2;2;
57884;PMS5003;43703;51.060;-0.086;2024-01-30T06:20:13;1;1;
57884;PMS5003;43703;51.060;-0.086;2024-01-30T06:22:38;0;0;
57884;PMS5003;43703;51.060;-0.086;2024-01-30T06:25:05;1;1;
57884;PMS5003;43703;51.060;-0.086;2024-01-30T06:27:30;2;1;
57884;PMS5003;43703;51.060;-0.086;2024-01-30T06:29:56;1;1;
57884;PMS5003;43703;51.060;-0.086;2024-01-30T06:32:22;0;0;
57884;PMS5003;43703;51.060;-0.086;2024-01-30T06:34:47;1;1;
57884;PMS5003;43703;51.060;-0.086;2024-01-30T06:37:13;0;0;
57884;PMS5003;43703;51.060;-0.086;2024-01-30T06:39:39;1;1;
57884;PMS5003;43703;51.060;-0.086;2024-01-30T06:42:05;1;1;
57884;PMS5003;43703;51.060;-0.086;2024-01-30T06:44:31;0;0;
57884;PMS5003;43703;51.060;-0.086;2024-01-30T06:46:57;1;0;
57884;PMS5003;43703;51.060;-0.086;2024-01-30T06:49:23;0;0;
57884;PMS5003;43703;51.060;-0.086;2024-01-30T06:51:52;1;1;
57884;PMS5003;43703;51.060;-0.086;2024-01-30T06:54:14;0;0;
57884;PMS5003;43703;51.060;-0.086;2024-01-30T06:56:40;1;1;
57884;PMS5003;43703;51.060;-0.086;2024-01-30T06:59:06;0;0;
57884;PMS5003;43703;51.060;-0.086;2024-01-30T07:01:31;0;0;
57884;PMS5003;43703;51.060;-0.086;2024-01-30T07:03:57;0;0;
57884;PMS5003;43703;51.060;-0.086;2024-01-30T07:06:27;1;1;
57884;PMS5003;43703;51.060;-0.086;2024-01-30T07:08:49;1;1;
57884;PMS5003;43703;51.060;-0.086;2024-01-30T07:11:18;0;0;
57884;PMS5003;43703;51.060;-0.086;2024-01-30T07:13:40;0;0;
57884;PMS5003;43703;51.060;-0.086;2024-01-30T07:16:07;2;0;
57884;PMS5003;43703;51.060;-0.086;2024-01-30T07:18:32;0;0;
57884;PMS5003;43703;51.060;-0.086;2024-01-30T07:20:58;1;1;
57884;PMS5003;43703;51.060;-0.086;2024-01-30T07:23:24;0;0;
57884;PMS5003;43703;51.060;-0.086;2024-01-30T07:25:50;1;0;
57884;PMS5003;43703;51.060;-0.086;2024-01-30T07:28:15;0;0;
57884;PMS5003;43703;51.060;-0.086;2024-01-30T07:30:41;0;0;
57884;PMS5003;43703;51.060;-0.086;2024-01-30T07:33:07;0;0;
57884;PMS5003;43703;51.060;-0.086;2024-01-30T07:35:33;0;0;
57884;PMS5003;43703;51.060;-0.086;2024-01-30T07:37:59;0;0;
57884;PMS5003;43703;51.060;-0.086;2024-01-30T07:40:24;1;1;
57884;PMS5003;43703;51.060;-0.086;2024-01-30T07:42:50;0;0;
57884;PMS5003;43703;51.060;-0.086;2024-01-30T07:45:16;0;0;
57884;PMS5003;43703;51.060;-0.086;2024-01-30T07:47:42;1;1;
57884;PMS5003;43703;51.060;-0.086;2024-01-30T07:50:08;0;0;
57884;PMS5003;43703;51.060;-0.086;2024-01-30T07:52:33;1;1;
57884;PMS5003;43703;51.060;-0.086;2024-01-30T07:54:59;1;1;
57884;PMS5003;43703;51.060;-0.086;2024-01-30T07:57:25;1;1;
57884;PMS5003;43703;51.060;-0.086;2024-01-30T07:59:51;6;4;
57884;PMS5003;43703;51.060;-0.086;2024-01-30T08:02:17;3;3;
57884;PMS5003;43703;51.060;-0.086;2024-01-30T08:04:43;6;4;
57884;PMS5003;43703;51.060;-0.086;2024-01-30T08:07:09;5;5;
57884;PMS5003;43703;51.060;-0.086;2024-01-30T08:09:34;6;5;
57884;PMS5003;43703;51.060;-0.086;2024-01-30T08:12:00;4;4;
57884;PMS5003;43703;51.060;-0.086;2024-01-30T08:14:26;7;5;
57884;PMS5003;43703;51.060;-0.086;2024-01-30T08:16:52;7;6;
57884;PMS5003;43703;51.060;-0.086;2024-01-30T08:19:18;6;5;
57884;PMS5003;43703;51.060;-0.086;2024-01-30T08:21:44;7;6;
57884;PMS5003;43703;51.060;-0.086;2024-01-30T08:24:10;7;7;
57884;PMS5003;43703;51.060;-0.086;2024-01-30T08:26:35;6;6;
57884;PMS5003;43703;51.060;-0.086;2024-01-30T08:29:04;11;8;
57884;PMS5003;43703;51.060;-0.086;2024-01-30T08:31:27;7;5;
57884;PMS5003;43703;51.060;-0.086;2024-01-30T08:33:53;8;7;
57884;PMS5003;43703;51.060;-0.086;2024-01-30T08:36:19;6;6;
57884;PMS5003;43703;51.060;-0.086;2024-01-30T08:38:45;5;5;
57884;PMS5003;43703;51.060;-0.086;2024-01-30T08:41:10;5;4;
57884;PMS5003;43703;51.060;-0.086;2024-01-30T08:43:36;5;5;
57884;PMS5003;43703;51.060;-0.086;2024-01-30T08:46:02;6;6;
57884;PMS5003;43703;51.060;-0.086;2024-01-30T08:48:28;7;7;
57884;PMS5003;43703;51.060;-0.086;2024-01-30T08:50:54;4;4;
57884;PMS5003;43703;51.060;-0.086;2024-01-30T08:53:20;7;5;
57884;PMS5003;43703;51.060;-0.086;2024-01-30T08:55:46;4;4;
57884;PMS5003;43703;51.060;-0.086;2024-01-30T08:58:11;3;3;
57884;PMS5003;43703;51.060;-0.086;2024-01-30T09:00:39;2;1;
57884;PMS5003;43703;51.060;-0.086;2024-01-30T09:03:03;3;3;
57884;PMS5003;43703;51.060;-0.086;2024-01-30T09:05:29;2;2;
57884;PMS5003;43703;51.060;-0.086;2024-01-30T09:07:55;2;2;
57884;PMS5003;43703;51.060;-0.086;2024-01-30T09:10:21;3;2;
57884;PMS5003;43703;51.060;-0.086;2024-01-30T09:12:47;1;1;
57884;PMS5003;43703;51.060;-0.086;2024-01-30T09:15:13;3;3;
57884;PMS5003;43703;51.060;-0.086;2024-01-30T09:17:38;1;1;
57884;PMS5003;43703;51.060;-0.086;2024-01-30T09:20:05;3;2;
57884;PMS5003;43703;51.060;-0.086;2024-01-30T09:22:30;2;0;
57884;PMS5003;43703;51.060;-0.086;2024-01-30T09:24:56;1;1;
57884;PMS5003;43703;51.060;-0.086;2024-01-30T09:27:22;2;2;
57884;PMS5003;43703;51.060;-0.086;2024-01-30T09:29:47;2;2;
57884;PMS5003;43703;51.060;-0.086;2024-01-30T09:32:13;1;1;
57884;PMS5003;43703;51.060;-0.086;2024-01-30T09:34:39;1;1;
57884;PMS5003;43703;51.060;-0.086;2024-01-30T09:37:06;1;1;
57884;PMS5003;43703;51.060;-0.086;2024-01-30T09:39:31;1;1;
57884;PMS5003;43703;51.060;-0.086;2024-01-30T09:42:01;1;1;
57884;PMS5003;43703;51.060;-0.086;2024-01-30T09:44:23;3;1;
57884;PMS5003;43703;51.060;-0.086;2024-01-30T09:46:48;2;2;
57884;PMS5003;43703;51.060;-0.086;2024-01-30T09:49:14;2;2;
57884;PMS5003;43703;51.060;-0.086;2024-01-30T09:51:40;1;1;
57884;PMS5003;43703;51.060;-0.086;2024-01-30T09:54:06;3;3;
57884;PMS5003;43703;51.060;-0.086;2024-01-30T09:56:34;2;2;
57884;PMS5003;43703;51.060;-0.086;2024-01-30T09:58:58;1;1;
57884;PMS5003;43703;51.060;-0.086;2024-01-30T10:01:24;1;1;
57884;PMS5003;43703;51.060;-0.086;2024-01-30T10:03:50;2;2;
57884;PMS5003;43703;51.060;-0.086;2024-01-30T10:06:15;1;1;
57884;PMS5003;43703;51.060;-0.086;2024-01-30T10:08:42;2;2;
57884;PMS5003;43703;51.060;-0.086;2024-01-30T10:11:07;2;2;
57884;PMS5003;43703;51.060;-0.086;2024-01-30T10:13:33;2;2;
57884;PMS5003;43703;51.060;-0.086;2024-01-30T10:15:58;2;2;
57884;PMS5003;43703;51.060;-0.086;2024-01-30T10:18:24;2;2;
57884;PMS5003;43703;51.060;-0.086;2024-01-30T10:20:53;1;1;
57884;PMS5003;43703;51.060;-0.086;2024-01-30T10:23:16;2;2;
57884;PMS5003;43703;51.060;-0.086;2024-01-30T10:25:42;2;2;
57884;PMS5003;43703;51.060;-0.086;2024-01-30T10:28:07;2;2;
57884;PMS5003;43703;51.060;-0.086;2024-01-30T10:30:33;3;3;
57884;PMS5003;43703;51.060;-0.086;2024-01-30T10:32:59;4;3;
57884;PMS5003;43703;51.060;-0.086;2024-01-30T10:35:25;4;3;
57884;PMS5003;43703;51.060;-0.086;2024-01-30T10:37:51;3;3;
57884;PMS5003;43703;51.060;-0.086;2024-01-30T10:40:17;2;2;
57884;PMS5003;43703;51.060;-0.086;2024-01-30T10:42:43;1;1;
57884;PMS5003;43703;51.060;-0.086;2024-01-30T10:45:09;3;3;
57884;PMS5003;43703;51.060;-0.086;2024-01-30T10:47:34;4;4;
57884;PMS5003;43703;51.060;-0.086;2024-01-30T10:50:00;3;2;
57884;PMS5003;43703;51.060;-0.086;2024-01-30T10:52:26;2;2;
57884;PMS5003;43703;51.060;-0.086;2024-01-30T10:54:53;3;3;
57884;PMS5003;43703;51.060;-0.086;2024-01-30T10:57:18;3;3;
57884;PMS5003;43703;51.060;-0.086;2024-01-30T10:59:43;5;4;
57884;PMS5003;43703;51.060;-0.086;2024-01-30T11:02:09;3;3;
57884;PMS5003;43703;51.060;-0.086;2024-01-30T11:04:36;3;3;
57884;PMS5003;43703;51.060;-0.086;2024-01-30T11:09:28;3;3;
57884;PMS5003;43703;51.060;-0.086;2024-01-30T11:11:56;5;5;
57884;PMS5003;43703;51.060;-0.086;2024-01-30T11:14:23;6;4;
57884;PMS5003;43703;51.060;-0.086;2024-01-30T11:16:44;5;5;
57884;PMS5003;43703;51.060;-0.086;2024-01-30T11:19:10;5;5;
57884;PMS5003;43703;51.060;-0.086;2024-01-30T11:21:40;4;4;
57884;PMS5003;43703;51.060;-0.086;2024-01-30T11:24:02;5;3;
57884;PMS5003;43703;51.060;-0.086;2024-01-30T11:26:31;6;3;
57884;PMS5003;43703;51.060;-0.086;2024-01-30T11:28:53;6;4;
57884;PMS5003;43703;51.060;-0.086;2024-01-30T11:31:19;6;5;
57884;PMS5003;43703;51.060;-0.086;2024-01-30T11:33:45;5;5;
57884;PMS5003;43703;51.060;-0.086;2024-01-30T11:36:11;6;6;
57884;PMS5003;43703;51.060;-0.086;2024-01-30T11:38:36;4;4;
57884;PMS5003;43703;51.060;-0.086;2024-01-30T11:41:02;3;3;
57884;PMS5003;43703;51.060;-0.086;2024-01-30T11:43:28;4;4;
57884;PMS5003;43703;51.060;-0.086;2024-01-30T11:45:54;5;5;
57884;PMS5003;43703;51.060;-0.086;2024-01-30T11:48:20;7;4;
57884;PMS5003;43703;51.060;-0.086;2024-01-30T11:50:46;5;5;
57884;PMS5003;43703;51.060;-0.086;2024-01-30T11:53:11;6;6;
57884;PMS5003;43703;51.060;-0.086;2024-01-30T11:55:37;3;3;
57884;PMS5003;43703;51.060;-0.086;2024-01-30T11:58:03;3;3;
57884;PMS5003;43703;51.060;-0.086;2024-01-30T12:00:29;4;4;
57884;PMS5003;43703;51.060;-0.086;2024-01-30T12:02:55;4;4;
57884;PMS5003;43703;51.060;-0.086;2024-01-30T12:05:21;7;6;
57884;PMS5003;43703;51.060;-0.086;2024-01-30T12:07:46;4;4;
57884;PMS5003;43703;51.060;-0.086;2024-01-30T12:10:12;3;3;
57884;PMS5003;43703;51.060;-0.086;2024-01-30T12:12:38;4;4;
57884;PMS5003;43703;51.060;-0.086;2024-01-30T12:15:04;5;4;
57884;PMS5003;43703;51.060;-0.086;2024-01-30T12:17:30;7;5;
57884;PMS5003;43703;51.060;-0.086;2024-01-30T12:22:21;7;7;
57884;PMS5003;43703;51.060;-0.086;2024-01-30T12:24:47;4;4;
57884;PMS5003;43703;51.060;-0.086;2024-01-30T12:27:15;6;6;
57884;PMS5003;43703;51.060;-0.086;2024-01-30T12:29:41;4;4;
57884;PMS5003;43703;51.060;-0.086;2024-01-30T12:32:04;5;5;
57884;PMS5003;43703;51.060;-0.086;2024-01-30T12:34:30;7;6;
57884;PMS5003;43703;51.060;-0.086;2024-01-30T12:36:56;4;4;
57884;PMS5003;43703;51.060;-0.086;2024-01-30T12:39:22;5;5;
57884;PMS5003;43703;51.060;-0.086;2024-01-30T12:41:47;5;5;
57884;PMS5003;43703;51.060;-0.086;2024-01-30T12:44:13;5;5;
57884;PMS5003;43703;51.060;-0.086;2024-01-30T12:46:39;5;5;
57884;PMS5003;43703;51.060;-0.086;2024-01-30T12:49:05;7;5;
57884;PMS5003;43703;51.060;-0.086;2024-01-30T12:51:33;5;5;
57884;PMS5003;43703;51.060;-0.086;2024-01-30T12:53:56;6;6;
57884;PMS5003;43703;51.060;-0.086;2024-01-30T12:56:22;5;5;
57884;PMS5003;43703;51.060;-0.086;2024-01-30T12:58:48;5;5;
57884;PMS5003;43703;51.060;-0.086;2024-01-30T13:01:15;6;6;
57884;PMS5003;43703;51.060;-0.086;2024-01-30T13:03:40;6;4;
57884;PMS5003;43703;51.060;-0.086;2024-01-30T13:06:05;6;6;
57884;PMS5003;43703;51.060;-0.086;2024-01-30T13:08:31;6;4;
57884;PMS5003;43703;51.060;-0.086;2024-01-30T13:10:57;9;7;
57884;PMS5003;43703;51.060;-0.086;2024-01-30T13:13:23;8;7;
57884;PMS5003;43703;51.060;-0.086;2024-01-30T13:15:48;6;6;
57884;PMS5003;43703;51.060;-0.086;2024-01-30T13:18:14;6;5;
57884;PMS5003;43703;51.060;-0.086;2024-01-30T13:20:40;7;7;
57884;PMS5003;43703;51.060;-0.086;2024-01-30T13:23:06;8;6;
57884;PMS5003;43703;51.060;-0.086;2024-01-30T13:25:32;6;6;
57884;PMS5003;43703;51.060;-0.086;2024-01-30T13:27:58;5;5;
57884;PMS5003;43703;51.060;-0.086;2024-01-30T13:30:23;7;6;
57884;PMS5003;43703;51.060;-0.086;2024-01-30T13:32:49;5;5;
57884;PMS5003;43703;51.060;-0.086;2024-01-30T13:35:15;6;6;
57884;PMS5003;43703;51.060;-0.086;2024-01-30T13:37:41;7;7;
57884;PMS5003;43703;51.060;-0.086;2024-01-30T13:40:07;5;5;
57884;PMS5003;43703;51.060;-0.086;2024-01-30T13:42:32;5;4;
57884;PMS5003;43703;51.060;-0.086;2024-01-30T13:44:58;6;6;
57884;PMS5003;43703;51.060;-0.086;2024-01-30T13:47:23;7;7;
57884;PMS5003;43703;51.060;-0.086;2024-01-30T13:49:49;3;3;
57884;PMS5003;43703;51.060;-0.086;2024-01-30T13:52:15;6;6;
57884;PMS5003;43703;51.060;-0.086;2024-01-30T13:54:41;5;3;
57884;PMS5003;43703;51.060;-0.086;2024-01-30T13:57:08;5;5;
57884;PMS5003;43703;51.060;-0.086;2024-01-30T13:59:33;4;3;
57884;PMS5003;43703;51.060;-0.086;2024-01-30T14:01:59;4;4;
57884;PMS5003;43703;51.060;-0.086;2024-01-30T14:04:24;3;3;
57884;PMS5003;43703;51.060;-0.086;2024-01-30T14:06:50;2;2;
57884;PMS5003;43703;51.060;-0.086;2024-01-30T14:09:17;1;1;
57884;PMS5003;43703;51.060;-0.086;2024-01-30T14:11:42;2;1;
57884;PMS5003;43703;51.060;-0.086;2024-01-30T14:14:08;2;2;
57884;PMS5003;43703;51.060;-0.086;2024-01-30T14:16:34;1;1;
57884;PMS5003;43703;51.060;-0.086;2024-01-30T14:18:59;1;1;
57884;PMS5003;43703;51.060;-0.086;2024-01-30T14:21:25;1;1;
57884;PMS5003;43703;51.060;-0.086;2024-01-30T14:23:51;3;2;
57884;PMS5003;43703;51.060;-0.086;2024-01-30T14:26:17;2;2;
57884;PMS5003;43703;51.060;-0.086;2024-01-30T14:28:43;0;0;
57884;PMS5003;43703;51.060;-0.086;2024-01-30T14:31:09;4;4;
57884;PMS5003;43703;51.060;-0.086;2024-01-30T14:33:34;3;3;
57884;PMS5003;43703;51.060;-0.086;2024-01-30T14:36:00;1;1;
57884;PMS5003;43703;51.060;-0.086;2024-01-30T14:38:25;2;1;
57884;PMS5003;43703;51.060;-0.086;2024-01-30T14:40:51;0;0;
57884;PMS5003;43703;51.060;-0.086;2024-01-30T14:43:17;0;0;
57884;PMS5003;43703;51.060;-0.086;2024-01-30T14:45:43;1;1;
57884;PMS5003;43703;51.060;-0.086;2024-01-30T14:48:09;1;1;
57884;PMS5003;43703;51.060;-0.086;2024-01-30T14:50:39;0;0;
57884;PMS5003;43703;51.060;-0.086;2024-01-30T14:53:00;0;0;
57884;PMS5003;43703;51.060;-0.086;2024-01-30T14:55:26;1;1;
57884;PMS5003;43703;51.060;-0.086;2024-01-30T14:57:52;0;0;
57884;PMS5003;43703;51.060;-0.086;2024-01-30T15:00:18;1;1;
57884;PMS5003;43703;51.060;-0.086;2024-01-30T15:02:44;1;1;
57884;PMS5003;43703;51.060;-0.086;2024-01-30T15:05:09;2;1;
57884;PMS5003;43703;51.060;-0.086;2024-01-30T15:07:35;2;2;
57884;PMS5003;43703;51.060;-0.086;2024-01-30T15:10:01;1;0;
57884;PMS5003;43703;51.060;-0.086;2024-01-30T15:12:31;1;1;
57884;PMS5003;43703;51.060;-0.086;2024-01-30T15:14:53;1;1;
57884;PMS5003;43703;51.060;-0.086;2024-01-30T15:17:19;2;2;
57884;PMS5003;43703;51.060;-0.086;2024-01-30T15:19:44;1;1;
57884;PMS5003;43703;51.060;-0.086;2024-01-30T15:22:12;1;1;
57884;PMS5003;43703;51.060;-0.086;2024-01-30T15:24:36;3;2;
57884;PMS5003;43703;51.060;-0.086;2024-01-30T15:27:02;1;1;
57884;PMS5003;43703;51.060;-0.086;2024-01-30T15:29:28;2;2;
57884;PMS5003;43703;51.060;-0.086;2024-01-30T15:31:53;3;2;
57884;PMS5003;43703;51.060;-0.086;2024-01-30T15:34:19;1;1;
57884;PMS5003;43703;51.060;-0.086;2024-01-30T15:36:46;2;2;
57884;PMS5003;43703;51.060;-0.086;2024-01-30T15:39:11;1;1;
57884;PMS5003;43703;51.060;-0.086;2024-01-30T15:41:37;1;1;
57884;PMS5003;43703;51.060;-0.086;2024-01-30T15:44:08;2;1;
57884;PMS5003;43703;51.060;-0.086;2024-01-30T15:46:28;2;2;
57884;PMS5003;43703;51.060;-0.086;2024-01-30T15:48:54;1;1;
57884;PMS5003;43703;51.060;-0.086;2024-01-30T15:51:25;0;0;
57884;PMS5003;43703;51.060;-0.086;2024-01-30T15:53:46;0;0;
57884;PMS5003;43703;51.060;-0.086;2024-01-30T15:56:12;1;1;
57884;PMS5003;43703;51.060;-0.086;2024-01-30T15:58:38;1;1;
57884;PMS5003;43703;51.060;-0.086;2024-01-30T16:01:03;1;1;
57884;PMS5003;43703;51.060;-0.086;2024-01-30T16:03:29;1;1;
57884;PMS5003;43703;51.060;-0.086;2024-01-30T16:05:55;9;8;
57884;PMS5003;43703;51.060;-0.086;2024-01-30T16:08:21;10;9;
57884;PMS5003;43703;51.060;-0.086;2024-01-30T16:10:46;4;4;
57884;PMS5003;43703;51.060;-0.086;2024-01-30T16:13:12;4;2;
57884;PMS5003;43703;51.060;-0.086;2024-01-30T16:15:38;2;2;
57884;PMS5003;43703;51.060;-0.086;2024-01-30T16:18:04;9;9;
57884;PMS5003;43703;51.060;-0.086;2024-01-30T16:20:30;4;4;
57884;PMS5003;43703;51.060;-0.086;2024-01-30T16:22:56;3;3;
57884;PMS5003;43703;51.060;-0.086;2024-01-30T16:25:22;1;1;
57884;PMS5003;43703;51.060;-0.086;2024-01-30T16:27:47;2;2;
57884;PMS5003;43703;51.060;-0.086;2024-01-30T16:30:13;1;1;